sensor_id;sensor_type;location;lat;lon;timestamp;temperature;humidity
38380;DHT22;38377;47.418;18.882;2023-02-28T00:01:00;0.40;90.80
38380;DHT22;38377;47.418;18.882;2023-02-28T00:03:26;0.40;90.60
38380;DHT22;38377;47.418;18.882;2023-02-28T00:05:52;0.40;90.10
38380;DHT22;38377;47.418;18.882;2023-02-28T00:08:17;0.50;90.10
38380;DHT22;38377;47.418;18.882;2023-02-28T00:10:43;0.50;90.10
38380;DHT22;38377;47.418;18.882;2023-02-28T00:13:09;0.50;90.00
38380;DHT22;38377;47.418;18.882;2023-02-28T00:15:34;0.50;90.00
38380;DHT22;38377;47.418;18.882;2023-02-28T00:18:01;0.50;90.00
38380;DHT22;38377;47.418;18.882;2023-02-28T00:20:26;0.50;90.10
38380;DHT22;38377;47.418;18.882;2023-02-28T00:22:53;0.50;89.50
38380;DHT22;38377;47.418;18.882;2023-02-28T00:25:22;0.50;89.20
38380;DHT22;38377;47.418;18.882;2023-02-28T00:27:48;0.50;90.10
38380;DHT22;38377;47.418;18.882;2023-02-28T00:30:16;0.60;90.50
38380;DHT22;38377;47.418;18.882;2023-02-28T00:32:43;0.60;90.10
38380;DHT22;38377;47.418;18.882;2023-02-28T00:35:09;0.60;89.40
38380;DHT22;38377;47.418;18.882;2023-02-28T00:37:35;0.60;88.90
38380;DHT22;38377;47.418;18.882;2023-02-28T00:40:01;0.60;89.90
38380;DHT22;38377;47.418;18.882;2023-02-28T00:42:30;0.60;90.30
38380;DHT22;38377;47.418;18.882;2023-02-28T00:44:55;0.70;90.70
38380;DHT22;38377;47.418;18.882;2023-02-28T00:47:21;0.70;90.50
38380;DHT22;38377;47.418;18.882;2023-02-28T00:49:47;0.70;89.80
38380;DHT22;38377;47.418;18.882;2023-02-28T00:52:13;0.70;90.30
38380;DHT22;38377;47.418;18.882;2023-02-28T00:54:38;0.70;90.00
38380;DHT22;38377;47.418;18.882;2023-02-28T00:57:04;0.70;89.00
38380;DHT22;38377;47.418;18.882;2023-02-28T00:59:30;0.70;90.10
38380;DHT22;38377;47.418;18.882;2023-02-28T01:01:55;0.70;89.70
38380;DHT22;38377;47.418;18.882;2023-02-28T01:04:21;0.80;89.90
38380;DHT22;38377;47.418;18.882;2023-02-28T01:06:47;0.70;90.90
38380;DHT22;38377;47.418;18.882;2023-02-28T01:09:12;0.80;91.00
38380;DHT22;38377;47.418;18.882;2023-02-28T01:11:38;0.80;90.30
38380;DHT22;38377;47.418;18.882;2023-02-28T01:14:06;0.80;90.10
38380;DHT22;38377;47.418;18.882;2023-02-28T01:16:32;0.80;90.30
38380;DHT22;38377;47.418;18.882;2023-02-28T01:18:58;0.80;91.70
38380;DHT22;38377;47.418;18.882;2023-02-28T01:21:24;0.80;91.50
38380;DHT22;38377;47.418;18.882;2023-02-28T01:23:49;0.80;90.60
38380;DHT22;38377;47.418;18.882;2023-02-28T01:26:18;0.80;90.60
38380;DHT22;38377;47.418;18.882;2023-02-28T01:28:44;0.70;90.30
38380;DHT22;38377;47.418;18.882;2023-02-28T01:31:10;0.70;91.00
38380;DHT22;38377;47.418;18.882;2023-02-28T01:33:37;0.70;91.60
38380;DHT22;38377;47.418;18.882;2023-02-28T01:36:22;0.70;90.90
38380;DHT22;38377;47.418;18.882;2023-02-28T01:38:49;0.70;90.30
38380;DHT22;38377;47.418;18.882;2023-02-28T01:41:27;0.70;89.90
38380;DHT22;38377;47.418;18.882;2023-02-28T01:44:01;0.70;89.90
38380;DHT22;38377;47.418;18.882;2023-02-28T01:46:30;0.80;90.10
38380;DHT22;38377;47.418;18.882;2023-02-28T01:49:09;0.70;89.40
38380;DHT22;38377;47.418;18.882;2023-02-28T01:51:42;0.70;89.70
38380;DHT22;38377;47.418;18.882;2023-02-28T01:54:20;0.70;90.40
38380;DHT22;38377;47.418;18.882;2023-02-28T01:57:00;0.80;89.20
38380;DHT22;38377;47.418;18.882;2023-02-28T01:59:33;0.80;89.90
38380;DHT22;38377;47.418;18.882;2023-02-28T02:02:01;0.70;89.00
38380;DHT22;38377;47.418;18.882;2023-02-28T02:04:32;0.70;89.60
38380;DHT22;38377;47.418;18.882;2023-02-28T02:06:59;0.70;90.00
38380;DHT22;38377;47.418;18.882;2023-02-28T02:09:25;0.80;90.20
38380;DHT22;38377;47.418;18.882;2023-02-28T02:11:51;0.80;89.10
38380;DHT22;38377;47.418;18.882;2023-02-28T02:36:51;0.90;87.80
38380;DHT22;38377;47.418;18.882;2023-02-28T02:39:32;0.90;87.90
38380;DHT22;38377;47.418;18.882;2023-02-28T02:42:02;0.90;88.50
38380;DHT22;38377;47.418;18.882;2023-02-28T02:44:40;0.90;88.00
38380;DHT22;38377;47.418;18.882;2023-02-28T02:47:14;0.90;88.30
38380;DHT22;38377;47.418;18.882;2023-02-28T02:49:43;1.00;87.40
38380;DHT22;38377;47.418;18.882;2023-02-28T02:52:12;0.90;87.70
38380;DHT22;38377;47.418;18.882;2023-02-28T02:54:42;0.90;89.70
38380;DHT22;38377;47.418;18.882;2023-02-28T02:57:13;0.90;90.00
38380;DHT22;38377;47.418;18.882;2023-02-28T02:59:41;0.90;88.20
38380;DHT22;38377;47.418;18.882;2023-02-28T03:02:11;0.90;89.60
38380;DHT22;38377;47.418;18.882;2023-02-28T03:04:48;0.90;90.70
38380;DHT22;38377;47.418;18.882;2023-02-28T03:07:16;0.90;91.10
38380;DHT22;38377;47.418;18.882;2023-02-28T03:09:50;1.00;89.70
38380;DHT22;38377;47.418;18.882;2023-02-28T03:12:17;1.00;88.10
38380;DHT22;38377;47.418;18.882;2023-02-28T03:14:55;0.90;87.70
38380;DHT22;38377;47.418;18.882;2023-02-28T03:20:17;0.80;88.30
38380;DHT22;38377;47.418;18.882;2023-02-28T03:26:13;0.80;88.10
38380;DHT22;38377;47.418;18.882;2023-02-28T03:28:48;0.80;88.00
38380;DHT22;38377;47.418;18.882;2023-02-28T03:31:39;0.80;88.50
38380;DHT22;38377;47.418;18.882;2023-02-28T03:34:17;0.80;88.00
38380;DHT22;38377;47.418;18.882;2023-02-28T03:36:48;0.70;89.20
38380;DHT22;38377;47.418;18.882;2023-02-28T03:39:31;0.80;89.00
38380;DHT22;38377;47.418;18.882;2023-02-28T03:42:09;0.70;88.40
38380;DHT22;38377;47.418;18.882;2023-02-28T03:44:39;0.70;88.00
38380;DHT22;38377;47.418;18.882;2023-02-28T03:47:21;0.70;88.40
38380;DHT22;38377;47.418;18.882;2023-02-28T03:50:08;0.70;88.00
38380;DHT22;38377;47.418;18.882;2023-02-28T03:52:50;0.70;88.10
38380;DHT22;38377;47.418;18.882;2023-02-28T03:55:17;0.70;88.70
38380;DHT22;38377;47.418;18.882;2023-02-28T04:00:30;0.70;88.00
38380;DHT22;38377;47.418;18.882;2023-02-28T04:02:58;0.70;88.40
38380;DHT22;38377;47.418;18.882;2023-02-28T04:05:24;0.70;88.10
38380;DHT22;38377;47.418;18.882;2023-02-28T04:07:51;0.70;88.10
38380;DHT22;38377;47.418;18.882;2023-02-28T04:10:17;0.70;88.40
38380;DHT22;38377;47.418;18.882;2023-02-28T04:12:43;0.70;88.70
38380;DHT22;38377;47.418;18.882;2023-02-28T04:15:08;0.70;88.60
38380;DHT22;38377;47.418;18.882;2023-02-28T04:17:36;0.70;88.50
38380;DHT22;38377;47.418;18.882;2023-02-28T04:20:01;0.70;88.30
38380;DHT22;38377;47.418;18.882;2023-02-28T04:22:28;0.60;87.80
38380;DHT22;38377;47.418;18.882;2023-02-28T04:24:54;0.70;88.30
38380;DHT22;38377;47.418;18.882;2023-02-28T04:27:20;0.70;87.90
38380;DHT22;38377;47.418;18.882;2023-02-28T04:29:46;0.70;88.30
38380;DHT22;38377;47.418;18.882;2023-02-28T04:32:12;0.70;88.10
38380;DHT22;38377;47.418;18.882;2023-02-28T04:34:38;0.70;88.00
38380;DHT22;38377;47.418;18.882;2023-02-28T04:37:04;0.70;88.00
38380;DHT22;38377;47.418;18.882;2023-02-28T04:39:34;0.60;88.40
38380;DHT22;38377;47.418;18.882;2023-02-28T04:41:59;0.60;88.90
38380;DHT22;38377;47.418;18.882;2023-02-28T04:44:25;0.70;88.80
38380;DHT22;38377;47.418;18.882;2023-02-28T04:46:51;0.70;88.60
38380;DHT22;38377;47.418;18.882;2023-02-28T04:49:16;0.70;89.50
38380;DHT22;38377;47.418;18.882;2023-02-28T04:51:42;0.70;89.60
38380;DHT22;38377;47.418;18.882;2023-02-28T04:54:08;0.70;88.90
38380;DHT22;38377;47.418;18.882;2023-02-28T04:56:34;0.70;89.60
38380;DHT22;38377;47.418;18.882;2023-02-28T04:59:00;0.70;88.90
38380;DHT22;38377;47.418;18.882;2023-02-28T05:01:28;0.70;90.00
38380;DHT22;38377;47.418;18.882;2023-02-28T05:03:57;0.80;89.20
38380;DHT22;38377;47.418;18.882;2023-02-28T05:06:25;0.70;89.00
38380;DHT22;38377;47.418;18.882;2023-02-28T05:08:52;0.70;89.10
38380;DHT22;38377;47.418;18.882;2023-02-28T05:11:24;0.70;89.40
38380;DHT22;38377;47.418;18.882;2023-02-28T05:13:51;0.70;88.70
38380;DHT22;38377;47.418;18.882;2023-02-28T05:16:18;0.70;89.10
38380;DHT22;38377;47.418;18.882;2023-02-28T05:18:44;0.70;89.50
38380;DHT22;38377;47.418;18.882;2023-02-28T05:23:55;0.70;89.60
38380;DHT22;38377;47.418;18.882;2023-02-28T05:26:22;0.70;90.00
38380;DHT22;38377;47.418;18.882;2023-02-28T05:28:47;0.70;90.40
38380;DHT22;38377;47.418;18.882;2023-02-28T05:31:13;0.70;90.10
38380;DHT22;38377;47.418;18.882;2023-02-28T05:33:39;0.70;89.40
38380;DHT22;38377;47.418;18.882;2023-02-28T05:36:05;0.70;88.90
38380;DHT22;38377;47.418;18.882;2023-02-28T05:38:31;0.70;89.20
38380;DHT22;38377;47.418;18.882;2023-02-28T05:40:57;0.70;89.70
38380;DHT22;38377;47.418;18.882;2023-02-28T05:43:23;0.70;90.20
38380;DHT22;38377;47.418;18.882;2023-02-28T05:45:49;0.70;89.70
38380;DHT22;38377;47.418;18.882;2023-02-28T05:48:15;0.70;89.90
38380;DHT22;38377;47.418;18.882;2023-02-28T05:50:41;0.70;89.70
38380;DHT22;38377;47.418;18.882;2023-02-28T05:53:08;0.70;90.30
38380;DHT22;38377;47.418;18.882;2023-02-28T05:55:33;0.70;89.90
38380;DHT22;38377;47.418;18.882;2023-02-28T05:58:01;0.80;89.30
38380;DHT22;38377;47.418;18.882;2023-02-28T06:00:27;0.70;89.30
38380;DHT22;38377;47.418;18.882;2023-02-28T06:02:53;0.80;88.80
38380;DHT22;38377;47.418;18.882;2023-02-28T06:05:22;0.70;89.30
38380;DHT22;38377;47.418;18.882;2023-02-28T06:07:47;0.80;89.40
38380;DHT22;38377;47.418;18.882;2023-02-28T06:10:14;0.80;90.20
38380;DHT22;38377;47.418;18.882;2023-02-28T06:12:39;0.80;90.00
38380;DHT22;38377;47.418;18.882;2023-02-28T06:15:09;0.90;90.10
38380;DHT22;38377;47.418;18.882;2023-02-28T06:17:37;0.90;90.20
38380;DHT22;38377;47.418;18.882;2023-02-28T06:20:03;1.00;90.60
38380;DHT22;38377;47.418;18.882;2023-02-28T06:22:29;1.00;90.00
38380;DHT22;38377;47.418;18.882;2023-02-28T06:24:54;1.10;90.20
38380;DHT22;38377;47.418;18.882;2023-02-28T06:27:22;1.10;90.00
38380;DHT22;38377;47.418;18.882;2023-02-28T06:29:48;1.10;90.70
38380;DHT22;38377;47.418;18.882;2023-02-28T06:32:13;1.10;90.40
38380;DHT22;38377;47.418;18.882;2023-02-28T06:34:41;1.20;90.90
38380;DHT22;38377;47.418;18.882;2023-02-28T06:37:07;1.20;90.40
38380;DHT22;38377;47.418;18.882;2023-02-28T06:39:33;1.30;90.00
38380;DHT22;38377;47.418;18.882;2023-02-28T06:41:59;1.30;89.70
38380;DHT22;38377;47.418;18.882;2023-02-28T06:44:25;1.30;90.70
38380;DHT22;38377;47.418;18.882;2023-02-28T06:46:51;1.40;90.70
38380;DHT22;38377;47.418;18.882;2023-02-28T06:49:17;1.40;90.20
38380;DHT22;38377;47.418;18.882;2023-02-28T06:51:44;1.40;89.80
38380;DHT22;38377;47.418;18.882;2023-02-28T06:54:13;1.50;89.30
38380;DHT22;38377;47.418;18.882;2023-02-28T06:56:39;1.50;89.40
38380;DHT22;38377;47.418;18.882;2023-02-28T06:59:05;1.50;88.90
38380;DHT22;38377;47.418;18.882;2023-02-28T07:01:31;1.50;88.60
38380;DHT22;38377;47.418;18.882;2023-02-28T07:03:58;1.60;88.80
38380;DHT22;38377;47.418;18.882;2023-02-28T07:06:26;1.60;88.60
38380;DHT22;38377;47.418;18.882;2023-02-28T07:08:53;1.70;88.70
38380;DHT22;38377;47.418;18.882;2023-02-28T07:11:20;1.70;88.70
38380;DHT22;38377;47.418;18.882;2023-02-28T07:13:48;1.90;88.90
38380;DHT22;38377;47.418;18.882;2023-02-28T07:16:14;2.00;86.00
38380;DHT22;38377;47.418;18.882;2023-02-28T07:18:40;2.10;86.00
38380;DHT22;38377;47.418;18.882;2023-02-28T07:21:08;2.10;85.70
38380;DHT22;38377;47.418;18.882;2023-02-28T07:23:35;2.20;85.40
38380;DHT22;38377;47.418;18.882;2023-02-28T07:26:01;2.20;86.60
38380;DHT22;38377;47.418;18.882;2023-02-28T07:28:27;2.30;86.60
38380;DHT22;38377;47.418;18.882;2023-02-28T07:30:52;2.50;84.30
38380;DHT22;38377;47.418;18.882;2023-02-28T07:33:18;2.70;85.10
38380;DHT22;38377;47.418;18.882;2023-02-28T07:35:44;2.90;84.30
38380;DHT22;38377;47.418;18.882;2023-02-28T07:38:10;3.20;83.20
38380;DHT22;38377;47.418;18.882;2023-02-28T07:40:36;3.40;80.70
38380;DHT22;38377;47.418;18.882;2023-02-28T07:43:03;3.20;79.40
38380;DHT22;38377;47.418;18.882;2023-02-28T07:45:29;3.20;80.20
38380;DHT22;38377;47.418;18.882;2023-02-28T07:47:57;3.30;79.70
38380;DHT22;38377;47.418;18.882;2023-02-28T07:50:23;3.30;79.30
38380;DHT22;38377;47.418;18.882;2023-02-28T07:52:49;3.40;80.60
38380;DHT22;38377;47.418;18.882;2023-02-28T07:55:14;3.60;78.80
38380;DHT22;38377;47.418;18.882;2023-02-28T07:57:42;3.60;78.00
38380;DHT22;38377;47.418;18.882;2023-02-28T08:00:09;3.60;79.50
38380;DHT22;38377;47.418;18.882;2023-02-28T08:02:35;3.30;79.60
38380;DHT22;38377;47.418;18.882;2023-02-28T08:05:02;3.40;80.00
38380;DHT22;38377;47.418;18.882;2023-02-28T08:07:27;3.50;79.50
38380;DHT22;38377;47.418;18.882;2023-02-28T08:09:53;3.90;79.60
38380;DHT22;38377;47.418;18.882;2023-02-28T08:12:19;4.00;78.30
38380;DHT22;38377;47.418;18.882;2023-02-28T08:14:45;4.00;78.70
38380;DHT22;38377;47.418;18.882;2023-02-28T08:17:11;4.00;78.10
38380;DHT22;38377;47.418;18.882;2023-02-28T08:19:37;3.60;80.90
38380;DHT22;38377;47.418;18.882;2023-02-28T08:22:03;3.60;80.70
38380;DHT22;38377;47.418;18.882;2023-02-28T08:24:28;3.50;81.40
38380;DHT22;38377;47.418;18.882;2023-02-28T08:26:55;3.50;81.60
38380;DHT22;38377;47.418;18.882;2023-02-28T08:29:20;3.70;81.60
38380;DHT22;38377;47.418;18.882;2023-02-28T08:31:46;3.60;80.10
38380;DHT22;38377;47.418;18.882;2023-02-28T08:34:14;3.50;82.20
38380;DHT22;38377;47.418;18.882;2023-02-28T08:36:41;3.40;82.80
38380;DHT22;38377;47.418;18.882;2023-02-28T08:39:08;3.40;81.00
38380;DHT22;38377;47.418;18.882;2023-02-28T08:41:34;3.40;80.80
38380;DHT22;38377;47.418;18.882;2023-02-28T08:44:00;3.50;80.30
38380;DHT22;38377;47.418;18.882;2023-02-28T08:46:26;3.50;80.70
38380;DHT22;38377;47.418;18.882;2023-02-28T08:48:53;3.50;80.40
38380;DHT22;38377;47.418;18.882;2023-02-28T08:51:19;3.50;80.20
38380;DHT22;38377;47.418;18.882;2023-02-28T08:53:52;3.50;80.80
38380;DHT22;38377;47.418;18.882;2023-02-28T08:56:19;3.50;80.20
38380;DHT22;38377;47.418;18.882;2023-02-28T08:58:46;3.60;80.30
38380;DHT22;38377;47.418;18.882;2023-02-28T09:01:18;3.50;79.90
38380;DHT22;38377;47.418;18.882;2023-02-28T09:03:47;3.70;81.30
38380;DHT22;38377;47.418;18.882;2023-02-28T09:06:13;3.80;81.80
38380;DHT22;38377;47.418;18.882;2023-02-28T09:08:39;3.80;81.10
38380;DHT22;38377;47.418;18.882;2023-02-28T09:11:06;3.90;81.70
38380;DHT22;38377;47.418;18.882;2023-02-28T09:13:32;3.90;79.90
38380;DHT22;38377;47.418;18.882;2023-02-28T09:15:59;4.00;80.80
38380;DHT22;38377;47.418;18.882;2023-02-28T09:18:25;4.10;80.40
38380;DHT22;38377;47.418;18.882;2023-02-28T09:20:51;4.00;78.80
38380;DHT22;38377;47.418;18.882;2023-02-28T09:23:17;4.00;80.40
38380;DHT22;38377;47.418;18.882;2023-02-28T09:26:01;4.30;79.90
38380;DHT22;38377;47.418;18.882;2023-02-28T09:28:27;4.40;79.90
38380;DHT22;38377;47.418;18.882;2023-02-28T09:30:54;4.50;79.60
38380;DHT22;38377;47.418;18.882;2023-02-28T09:33:21;4.50;78.10
38380;DHT22;38377;47.418;18.882;2023-02-28T09:35:51;4.40;78.20
38380;DHT22;38377;47.418;18.882;2023-02-28T09:38:17;4.40;79.00
38380;DHT22;38377;47.418;18.882;2023-02-28T09:40:58;4.40;78.80
38380;DHT22;38377;47.418;18.882;2023-02-28T09:43:27;4.70;78.80
38380;DHT22;38377;47.418;18.882;2023-02-28T09:46:46;4.50;77.70
38380;DHT22;38377;47.418;18.882;2023-02-28T09:48:48;4.50;78.80
38380;DHT22;38377;47.418;18.882;2023-02-28T09:51:27;4.70;78.00
38380;DHT22;38377;47.418;18.882;2023-02-28T09:53:54;4.70;78.90
38380;DHT22;38377;47.418;18.882;2023-02-28T09:59:25;4.50;78.80
38380;DHT22;38377;47.418;18.882;2023-02-28T10:04:56;5.20;78.80
38380;DHT22;38377;47.418;18.882;2023-02-28T10:10:31;5.20;78.30
38380;DHT22;38377;47.418;18.882;2023-02-28T10:13:00;5.30;76.00
38380;DHT22;38377;47.418;18.882;2023-02-28T10:15:31;5.40;76.70
38380;DHT22;38377;47.418;18.882;2023-02-28T10:18:06;5.40;76.90
38380;DHT22;38377;47.418;18.882;2023-02-28T10:20:39;5.30;77.50
38380;DHT22;38377;47.418;18.882;2023-02-28T10:23:36;5.50;77.60
38380;DHT22;38377;47.418;18.882;2023-02-28T10:26:12;5.70;77.00
38380;DHT22;38377;47.418;18.882;2023-02-28T10:28:39;5.80;76.90
38380;DHT22;38377;47.418;18.882;2023-02-28T10:31:05;5.80;76.70
38380;DHT22;38377;47.418;18.882;2023-02-28T10:33:34;6.00;75.60
38380;DHT22;38377;47.418;18.882;2023-02-28T10:36:01;5.90;76.40
38380;DHT22;38377;47.418;18.882;2023-02-28T10:38:36;5.90;76.60
38380;DHT22;38377;47.418;18.882;2023-02-28T10:41:15;5.90;75.80
38380;DHT22;38377;47.418;18.882;2023-02-28T10:43:42;5.90;76.20
38380;DHT22;38377;47.418;18.882;2023-02-28T10:46:12;6.00;78.00
38380;DHT22;38377;47.418;18.882;2023-02-28T10:49:06;5.90;78.70
38380;DHT22;38377;47.418;18.882;2023-02-28T10:51:39;5.50;78.40
38380;DHT22;38377;47.418;18.882;2023-02-28T10:54:05;5.40;78.70
38380;DHT22;38377;47.418;18.882;2023-02-28T10:56:32;5.40;79.10
38380;DHT22;38377;47.418;18.882;2023-02-28T10:59:05;5.50;78.30
38380;DHT22;38377;47.418;18.882;2023-02-28T11:01:47;5.50;77.70
38380;DHT22;38377;47.418;18.882;2023-02-28T11:07:03;5.50;79.10
38380;DHT22;38377;47.418;18.882;2023-02-28T11:09:38;5.40;77.80
38380;DHT22;38377;47.418;18.882;2023-02-28T11:12:23;5.50;78.20
38380;DHT22;38377;47.418;18.882;2023-02-28T11:15:02;5.50;78.70
38380;DHT22;38377;47.418;18.882;2023-02-28T11:17:31;5.60;77.60
38380;DHT22;38377;47.418;18.882;2023-02-28T11:20:06;5.80;78.00
38380;DHT22;38377;47.418;18.882;2023-02-28T11:22:36;6.00;77.40
38380;DHT22;38377;47.418;18.882;2023-02-28T11:25:09;6.30;77.20
38380;DHT22;38377;47.418;18.882;2023-02-28T11:27:43;6.50;77.10
38380;DHT22;38377;47.418;18.882;2023-02-28T11:30:40;6.50;76.30
38380;DHT22;38377;47.418;18.882;2023-02-28T11:38:42;6.30;77.00
38380;DHT22;38377;47.418;18.882;2023-02-28T11:41:12;6.30;76.40
38380;DHT22;38377;47.418;18.882;2023-02-28T11:49:13;6.10;76.50
38380;DHT22;38377;47.418;18.882;2023-02-28T11:52:05;6.00;76.90
38380;DHT22;38377;47.418;18.882;2023-02-28T11:58:14;6.00;76.40
38380;DHT22;38377;47.418;18.882;2023-02-28T12:03:28;6.10;76.80
38380;DHT22;38377;47.418;18.882;2023-02-28T12:06:28;6.00;77.30
38380;DHT22;38377;47.418;18.882;2023-02-28T12:11:48;6.10;78.00
38380;DHT22;38377;47.418;18.882;2023-02-28T12:20:02;6.20;78.30
38380;DHT22;38377;47.418;18.882;2023-02-28T12:27:51;6.60;75.70
38380;DHT22;38377;47.418;18.882;2023-02-28T12:30:25;6.40;76.20
38380;DHT22;38377;47.418;18.882;2023-02-28T12:33:03;6.00;77.10
38380;DHT22;38377;47.418;18.882;2023-02-28T12:35:37;6.10;77.00
38380;DHT22;38377;47.418;18.882;2023-02-28T12:38:36;6.20;77.00
38380;DHT22;38377;47.418;18.882;2023-02-28T12:41:09;6.40;78.00
38380;DHT22;38377;47.418;18.882;2023-02-28T12:43:43;6.50;76.30
38380;DHT22;38377;47.418;18.882;2023-02-28T12:46:32;6.40;77.10
38380;DHT22;38377;47.418;18.882;2023-02-28T12:49:04;6.30;76.50
38380;DHT22;38377;47.418;18.882;2023-02-28T12:51:30;6.30;77.20
38380;DHT22;38377;47.418;18.882;2023-02-28T12:54:15;6.40;77.70
38380;DHT22;38377;47.418;18.882;2023-02-28T12:56:52;6.30;77.40
38380;DHT22;38377;47.418;18.882;2023-02-28T12:59:37;6.30;77.40
38380;DHT22;38377;47.418;18.882;2023-02-28T13:02:23;6.20;76.80
38380;DHT22;38377;47.418;18.882;2023-02-28T13:10:22;6.50;76.60
38380;DHT22;38377;47.418;18.882;2023-02-28T13:12:49;6.60;76.20
38380;DHT22;38377;47.418;18.882;2023-02-28T13:15:22;6.60;76.50
38380;DHT22;38377;47.418;18.882;2023-02-28T13:18:00;6.70;76.20
38380;DHT22;38377;47.418;18.882;2023-02-28T13:20:35;6.70;76.00
38380;DHT22;38377;47.418;18.882;2023-02-28T13:23:01;6.70;75.70
38380;DHT22;38377;47.418;18.882;2023-02-28T13:28:01;7.00;76.50
38380;DHT22;38377;47.418;18.882;2023-02-28T13:36:29;6.40;76.80
38380;DHT22;38377;47.418;18.882;2023-02-28T13:39:03;6.20;77.30
38380;DHT22;38377;47.418;18.882;2023-02-28T13:41:49;6.10;78.00
38380;DHT22;38377;47.418;18.882;2023-02-28T13:44:22;6.10;77.60
38380;DHT22;38377;47.418;18.882;2023-02-28T14:03:32;6.00;78.90
38380;DHT22;38377;47.418;18.882;2023-02-28T14:11:49;6.10;79.60
38380;DHT22;38377;47.418;18.882;2023-02-28T14:17:02;6.10;79.80
38380;DHT22;38377;47.418;18.882;2023-02-28T14:19:30;6.00;78.90
38380;DHT22;38377;47.418;18.882;2023-02-28T14:24:41;5.90;79.90
38380;DHT22;38377;47.418;18.882;2023-02-28T14:27:31;6.00;80.10
38380;DHT22;38377;47.418;18.882;2023-02-28T14:33:14;6.00;80.10
38380;DHT22;38377;47.418;18.882;2023-02-28T14:35:57;6.10;81.00
38380;DHT22;38377;47.418;18.882;2023-02-28T14:38:41;6.10;80.20
38380;DHT22;38377;47.418;18.882;2023-02-28T14:41:20;6.00;80.60
38380;DHT22;38377;47.418;18.882;2023-02-28T14:43:54;6.00;80.80
38380;DHT22;38377;47.418;18.882;2023-02-28T14:46:22;6.00;80.50
38380;DHT22;38377;47.418;18.882;2023-02-28T14:48:50;6.00;80.60
38380;DHT22;38377;47.418;18.882;2023-02-28T14:51:23;6.10;80.90
38380;DHT22;38377;47.418;18.882;2023-02-28T14:53:55;6.00;80.50
38380;DHT22;38377;47.418;18.882;2023-02-28T14:56:28;5.90;80.60
38380;DHT22;38377;47.418;18.882;2023-02-28T14:58:57;5.90;81.30
38380;DHT22;38377;47.418;18.882;2023-02-28T15:01:24;5.90;80.90
38380;DHT22;38377;47.418;18.882;2023-02-28T15:03:58;5.80;81.60
38380;DHT22;38377;47.418;18.882;2023-02-28T15:06:24;5.80;82.10
38380;DHT22;38377;47.418;18.882;2023-02-28T15:09:10;5.80;81.90
38380;DHT22;38377;47.418;18.882;2023-02-28T15:11:37;5.90;81.70
38380;DHT22;38377;47.418;18.882;2023-02-28T15:14:04;5.90;81.50
38380;DHT22;38377;47.418;18.882;2023-02-28T15:16:39;5.90;81.60
38380;DHT22;38377;47.418;18.882;2023-02-28T15:21:35;5.80;81.40
38380;DHT22;38377;47.418;18.882;2023-02-28T15:24:21;5.80;81.40
38380;DHT22;38377;47.418;18.882;2023-02-28T15:27:02;5.70;81.50
38380;DHT22;38377;47.418;18.882;2023-02-28T15:29:31;5.70;82.60
38380;DHT22;38377;47.418;18.882;2023-02-28T15:32:03;5.70;82.50
38380;DHT22;38377;47.418;18.882;2023-02-28T15:34:41;5.80;82.00
38380;DHT22;38377;47.418;18.882;2023-02-28T15:37:29;5.70;82.40
38380;DHT22;38377;47.418;18.882;2023-02-28T15:39:58;5.70;81.80
38380;DHT22;38377;47.418;18.882;2023-02-28T15:42:29;5.60;82.70
38380;DHT22;38377;47.418;18.882;2023-02-28T15:44:57;5.60;82.50
38380;DHT22;38377;47.418;18.882;2023-02-28T15:47:27;5.60;82.90
38380;DHT22;38377;47.418;18.882;2023-02-28T15:50:00;5.60;82.80
38380;DHT22;38377;47.418;18.882;2023-02-28T15:52:42;5.50;82.40
38380;DHT22;38377;47.418;18.882;2023-02-28T15:55:18;5.40;83.00
38380;DHT22;38377;47.418;18.882;2023-02-28T15:57:45;5.40;83.40
38380;DHT22;38377;47.418;18.882;2023-02-28T16:00:16;5.40;82.90
38380;DHT22;38377;47.418;18.882;2023-02-28T16:02:44;5.40;83.10
38380;DHT22;38377;47.418;18.882;2023-02-28T16:07:37;5.40;82.90
38380;DHT22;38377;47.418;18.882;2023-02-28T16:10:04;5.40;83.40
38380;DHT22;38377;47.418;18.882;2023-02-28T16:12:32;5.40;83.50
38380;DHT22;38377;47.418;18.882;2023-02-28T16:15:02;5.30;84.10
38380;DHT22;38377;47.418;18.882;2023-02-28T16:17:34;5.30;84.40
38380;DHT22;38377;47.418;18.882;2023-02-28T16:20:05;5.30;85.50
38380;DHT22;38377;47.418;18.882;2023-02-28T16:22:31;5.20;86.50
38380;DHT22;38377;47.418;18.882;2023-02-28T16:24:56;5.20;87.30
38380;DHT22;38377;47.418;18.882;2023-02-28T16:27:31;5.10;87.20
38380;DHT22;38377;47.418;18.882;2023-02-28T16:29:56;5.10;87.40
38380;DHT22;38377;47.418;18.882;2023-02-28T16:32:22;5.00;87.70
38380;DHT22;38377;47.418;18.882;2023-02-28T16:34:48;4.90;87.50
38380;DHT22;38377;47.418;18.882;2023-02-28T16:37:16;4.90;87.60
38380;DHT22;38377;47.418;18.882;2023-02-28T16:39:43;4.90;88.10
38380;DHT22;38377;47.418;18.882;2023-02-28T16:42:15;4.80;88.10
38380;DHT22;38377;47.418;18.882;2023-02-28T16:44:42;4.90;89.00
38380;DHT22;38377;47.418;18.882;2023-02-28T16:47:10;4.80;88.60
38380;DHT22;38377;47.418;18.882;2023-02-28T16:49:36;4.80;88.70
38380;DHT22;38377;47.418;18.882;2023-02-28T16:52:02;4.80;89.00
38380;DHT22;38377;47.418;18.882;2023-02-28T16:54:27;4.70;89.10
38380;DHT22;38377;47.418;18.882;2023-02-28T16:56:53;4.70;88.90
38380;DHT22;38377;47.418;18.882;2023-02-28T16:59:22;4.70;89.30
38380;DHT22;38377;47.418;18.882;2023-02-28T17:01:50;4.70;89.40
38380;DHT22;38377;47.418;18.882;2023-02-28T17:04:17;4.70;89.50
38380;DHT22;38377;47.418;18.882;2023-02-28T17:06:42;4.70;89.40
38380;DHT22;38377;47.418;18.882;2023-02-28T17:09:16;4.70;90.00
38380;DHT22;38377;47.418;18.882;2023-02-28T17:11:43;4.70;89.90
38380;DHT22;38377;47.418;18.882;2023-02-28T17:14:09;4.60;90.00
38380;DHT22;38377;47.418;18.882;2023-02-28T17:16:36;4.60;89.90
38380;DHT22;38377;47.418;18.882;2023-02-28T17:19:06;4.60;90.20
38380;DHT22;38377;47.418;18.882;2023-02-28T17:21:32;4.60;90.00
38380;DHT22;38377;47.418;18.882;2023-02-28T17:24:00;4.60;90.00
38380;DHT22;38377;47.418;18.882;2023-02-28T17:26:26;4.60;90.10
38380;DHT22;38377;47.418;18.882;2023-02-28T17:28:54;4.60;90.50
38380;DHT22;38377;47.418;18.882;2023-02-28T17:31:24;4.60;90.30
38380;DHT22;38377;47.418;18.882;2023-02-28T17:33:50;4.60;90.70
38380;DHT22;38377;47.418;18.882;2023-02-28T17:36:22;4.60;90.60
38380;DHT22;38377;47.418;18.882;2023-02-28T17:38:48;4.60;90.60
38380;DHT22;38377;47.418;18.882;2023-02-28T17:41:14;4.60;90.60
38380;DHT22;38377;47.418;18.882;2023-02-28T17:43:40;4.60;90.80
38380;DHT22;38377;47.418;18.882;2023-02-28T17:46:14;4.60;90.90
38380;DHT22;38377;47.418;18.882;2023-02-28T17:48:41;4.60;91.00
38380;DHT22;38377;47.418;18.882;2023-02-28T17:51:09;4.50;91.10
38380;DHT22;38377;47.418;18.882;2023-02-28T17:53:35;4.50;91.10